Terminal Aerodrome Forecast
Issued by NWS Amarillo, TX

Home | Current Version | Previous Version | Text Only | Print | Product List | Glossary On
Versions: 1 2 3 4 5 6 7 8 9 10 11 12 13 14 15
012
FTUS44 KAMA 210312 AAA
TAFDHT
TAF AMD
KDHT 210312Z 2103/2124 03015KT P6SM OVC005
     FM210800 36015KT P6SM OVC003
     FM211700 01015G24KT P6SM OVC025=

USA.gov is the U.S. government's official web portal to all federal, state and local government web resources and services.